Time;durP1;ratioP1;P1;durP2;ratioP2;P2;SDS_P1;SDS_P2;PMS_P1;PMS_P2;Temp;Humidity;BMP_temperature;BMP_pressure;BME280_temperature;BME280_humidity;BME280_pressure;Samples;Min_cycle;Max_cycle;Signal;HPM_P1;HPM_P2
2020/12/29 00:01:35;;;;;;;14.88;5.45;;;;;;;;;;5094347;28;20031;-73
2020/12/29 00:04:01;;;;;;;11.93;6.32;;;;;;;;;;5093944;28;20366;-73
2020/12/29 00:06:27;;;;;;;20.60;8.65;;;;;;;;;;5093518;28;20022;-72
2020/12/29 00:08:53;;;;;;;25.67;8.93;;;;;;;;;;5093014;28;20027;-75
2020/12/29 00:11:19;;;;;;;23.02;7.57;;;;;;;;;;5094263;28;20077;-75
2020/12/29 00:13:45;;;;;;;17.73;6.28;;;;;;;;;;5094803;28;20035;-71
2020/12/29 00:16:11;;;;;;;15.38;5.32;;;;;;;;;;5094328;28;20024;-72
2020/12/29 00:18:37;;;;;;;13.55;6.68;;;;;;;;;;5095056;28;20028;-72
2020/12/29 00:21:03;;;;;;;15.48;6.18;;;;;;;;;;5065612;28;20028;-74
2020/12/29 00:23:30;;;;;;;8.13;4.57;;;;;;;;;;5092805;28;20031;-72
2020/12/29 00:25:56;;;;;;;6.97;3.97;;;;;;;;;;5093273;28;20059;-74
2020/12/29 00:28:22;;;;;;;7.00;3.90;;;;;;;;;;5092617;28;20020;-72
2020/12/29 00:30:48;;;;;;;9.85;3.65;;;;;;;;;;5092629;28;20045;-73
2020/12/29 00:33:14;;;;;;;9.13;4.00;;;;;;;;;;5064173;28;20023;-72
2020/12/29 00:35:40;;;;;;;9.30;5.55;;;;;;;;;;5092298;28;20038;-72
2020/12/29 00:38:06;;;;;;;13.15;5.60;;;;;;;;;;5065007;28;20024;-73
2020/12/29 00:40:33;;;;;;;12.60;5.70;;;;;;;;;;5088084;28;20490;-72
2020/12/29 00:42:59;;;;;;;13.48;5.72;;;;;;;;;;5086892;28;20020;-71
2020/12/29 00:45:25;;;;;;;16.05;6.57;;;;;;;;;;5094550;28;20056;-71
2020/12/29 00:47:51;;;;;;;17.52;6.53;;;;;;;;;;5094632;28;20024;-72
2020/12/29 00:50:17;;;;;;;14.65;6.22;;;;;;;;;;5094062;28;20032;-71
2020/12/29 00:52:43;;;;;;;10.50;4.28;;;;;;;;;;5085289;28;20382;-72
2020/12/29 00:55:09;;;;;;;8.40;3.85;;;;;;;;;;5089446;28;20482;-71
2020/12/29 00:57:35;;;;;;;6.05;2.78;;;;;;;;;;5093444;28;20036;-72
2020/12/29 01:00:01;;;;;;;6.18;2.67;;;;;;;;;;5093866;28;20351;-73
2020/12/29 01:02:27;;;;;;;4.88;1.98;;;;;;;;;;5076395;28;20051;-72
2020/12/29 01:04:53;;;;;;;3.50;2.10;;;;;;;;;;5093795;28;20062;-71
2020/12/29 01:07:19;;;;;;;4.82;1.83;;;;;;;;;;5094192;28;20470;-71
2020/12/29 01:09:45;;;;;;;2.80;1.73;;;;;;;;;;5094205;28;20375;-70
2020/12/29 01:12:11;;;;;;;3.22;2.28;;;;;;;;;;5093342;28;20016;-73
2020/12/29 01:14:37;;;;;;;7.38;2.10;;;;;;;;;;5094146;28;20103;-70
2020/12/29 01:17:03;;;;;;;4.90;2.60;;;;;;;;;;5094363;28;20025;-71
2020/12/29 01:19:29;;;;;;;7.50;2.50;;;;;;;;;;5093327;28;20039;-71
2020/12/29 01:21:55;;;;;;;3.60;1.98;;;;;;;;;;5094266;28;20521;-71
2020/12/29 01:24:22;;;;;;;7.32;1.85;;;;;;;;;;5093842;28;20028;-70
2020/12/29 01:26:48;;;;;;;3.20;1.83;;;;;;;;;;5093040;28;20531;-72
2020/12/29 01:29:14;;;;;;;4.25;1.90;;;;;;;;;;5093505;28;20031;-72
2020/12/29 01:31:40;;;;;;;4.05;2.53;;;;;;;;;;5093956;28;20020;-72
2020/12/29 01:34:06;;;;;;;4.65;1.98;;;;;;;;;;5093272;28;20046;-71
2020/12/29 01:36:32;;;;;;;7.53;3.20;;;;;;;;;;5092546;28;20016;-74
2020/12/29 01:38:58;;;;;;;7.07;3.20;;;;;;;;;;5093436;28;20015;-71
2020/12/29 01:41:24;;;;;;;4.22;2.38;;;;;;;;;;5078936;28;20029;-71
2020/12/29 01:43:51;;;;;;;4.25;1.80;;;;;;;;;;5094154;28;20024;-70
2020/12/29 01:46:17;;;;;;;2.08;1.85;;;;;;;;;;5089299;28;20069;-71
2020/12/29 01:48:44;;;;;;;3.88;1.95;;;;;;;;;;5092787;28;20024;-70
2020/12/29 01:51:10;;;;;;;2.75;2.00;;;;;;;;;;5093638;28;20026;-70
2020/12/29 01:53:39;;;;;;;2.40;2.00;;;;;;;;;;5093198;28;20023;-71
2020/12/29 01:56:08;;;;;;;3.70;2.10;;;;;;;;;;5092864;28;20023;-71
2020/12/29 01:58:36;;;;;;;8.02;2.30;;;;;;;;;;5079086;28;20112;-73
2020/12/29 02:01:02;;;;;;;4.18;2.20;;;;;;;;;;5092930;28;20444;-72
2020/12/29 02:03:28;;;;;;;3.58;1.90;;;;;;;;;;5092761;28;20032;-72
2020/12/29 02:05:54;;;;;;;2.63;2.08;;;;;;;;;;5093105;28;20019;-72
2020/12/29 02:08:21;;;;;;;2.20;1.98;;;;;;;;;;5091391;28;20046;-72
2020/12/29 02:10:47;;;;;;;3.60;1.92;;;;;;;;;;5088881;28;20012;-72
2020/12/29 02:13:13;;;;;;;2.85;2.10;;;;;;;;;;5082495;28;20359;-73
2020/12/29 02:15:39;;;;;;;2.60;1.85;;;;;;;;;;5092864;28;20017;-72
2020/12/29 02:18:05;;;;;;;3.47;1.90;;;;;;;;;;5092490;28;20028;-72
2020/12/29 02:20:31;;;;;;;3.03;2.25;;;;;;;;;;5092948;28;20470;-72
2020/12/29 02:22:57;;;;;;;3.20;1.77;;;;;;;;;;5078357;28;20020;-72
2020/12/29 02:25:23;;;;;;;3.05;1.95;;;;;;;;;;5092378;28;20039;-71
2020/12/29 02:27:50;;;;;;;2.88;1.65;;;;;;;;;;5093049;28;20020;-71
2020/12/29 02:30:17;;;;;;;2.53;1.42;;;;;;;;;;5092717;28;20051;-71
2020/12/29 02:32:43;;;;;;;11.68;1.77;;;;;;;;;;5092444;28;20501;-70
2020/12/29 02:35:11;;;;;;;1.42;1.30;;;;;;;;;;5094548;28;20046;-72
2020/12/29 02:37:37;;;;;;;4.10;1.80;;;;;;;;;;5097178;28;20416;-72
2020/12/29 02:40:04;;;;;;;2.03;1.55;;;;;;;;;;5072862;28;20069;-72
2020/12/29 02:42:30;;;;;;;2.28;1.40;;;;;;;;;;5064171;28;20024;-71
2020/12/29 02:44:56;;;;;;;4.10;1.25;;;;;;;;;;5092941;28;20028;-71
2020/12/29 02:47:23;;;;;;;3.22;1.35;;;;;;;;;;5093162;28;20024;-72
2020/12/29 02:49:49;;;;;;;2.83;1.20;;;;;;;;;;5091833;28;20556;-72
2020/12/29 02:52:15;;;;;;;1.23;1.00;;;;;;;;;;5092940;28;20343;-71
2020/12/29 02:54:41;;;;;;;0.95;0.85;;;;;;;;;;5093111;28;20104;-72
2020/12/29 02:57:07;;;;;;;1.25;0.80;;;;;;;;;;5092572;28;20019;-71
2020/12/29 02:59:33;;;;;;;1.67;1.00;;;;;;;;;;5093114;28;20024;-72
2020/12/29 03:01:59;;;;;;;0.90;0.82;;;;;;;;;;5093155;28;20065;-72
2020/12/29 03:04:25;;;;;;;0.77;0.55;;;;;;;;;;5092896;28;20430;-72
2020/12/29 03:06:52;;;;;;;1.33;0.85;;;;;;;;;;5093027;28;20031;-72
2020/12/29 03:09:18;;;;;;;3.83;1.90;;;;;;;;;;5092773;28;20154;-70
2020/12/29 03:11:45;;;;;;;6.18;1.88;;;;;;;;;;5092923;28;20103;-70
2020/12/29 03:14:11;;;;;;;1.92;1.30;;;;;;;;;;5092814;28;20378;-71
2020/12/29 03:16:37;;;;;;;2.75;1.35;;;;;;;;;;5092963;28;20024;-71
2020/12/29 03:19:04;;;;;;;3.45;1.10;;;;;;;;;;5092712;28;20020;-71
2020/12/29 03:21:30;;;;;;;3.45;1.00;;;;;;;;;;5096115;28;20030;-72
2020/12/29 03:23:56;;;;;;;3.35;1.42;;;;;;;;;;5097141;28;20028;-70
2020/12/29 03:26:22;;;;;;;2.10;1.45;;;;;;;;;;5096403;28;20024;-71
2020/12/29 03:28:49;;;;;;;1.77;1.10;;;;;;;;;;5066836;28;20020;-72
2020/12/29 03:31:17;;;;;;;2.55;1.58;;;;;;;;;;5095033;28;20096;-71
2020/12/29 03:33:44;;;;;;;2.50;1.38;;;;;;;;;;5096454;28;20032;-72
2020/12/29 03:36:10;;;;;;;4.18;1.10;;;;;;;;;;5096811;28;20027;-71
2020/12/29 03:38:36;;;;;;;2.10;1.40;;;;;;;;;;5097213;28;20032;-72
2020/12/29 03:41:02;;;;;;;2.25;1.20;;;;;;;;;;5085562;28;20115;-71
2020/12/29 03:43:28;;;;;;;1.10;0.70;;;;;;;;;;5093232;28;20028;-70
2020/12/29 03:45:54;;;;;;;1.75;1.10;;;;;;;;;;5096371;28;20366;-70
2020/12/29 03:48:22;;;;;;;2.47;1.10;;;;;;;;;;5096217;28;20032;-71
2020/12/29 03:50:49;;;;;;;0.40;0.40;;;;;;;;;;5096734;28;20450;-71
2020/12/29 03:53:15;;;;;;;1.08;0.45;;;;;;;;;;5064850;28;20036;-71
2020/12/29 03:55:41;;;;;;;0.20;0.20;;;;;;;;;;5095530;28;20027;-72
2020/12/29 03:58:07;;;;;;;0.52;0.30;;;;;;;;;;5096210;28;20028;-71
2020/12/29 04:00:36;;;;;;;1.38;0.40;;;;;;;;;;5081819;28;20028;-73
2020/12/29 04:03:02;;;;;;;0.20;0.20;;;;;;;;;;5096086;28;20031;-73
2020/12/29 04:05:28;;;;;;;0.20;0.20;;;;;;;;;;5063887;28;20036;-74
2020/12/29 04:07:55;;;;;;;1.50;0.70;;;;;;;;;;5096338;28;20020;-73
2020/12/29 04:10:21;;;;;;;1.40;1.00;;;;;;;;;;5096205;28;20024;-73
2020/12/29 04:12:48;;;;;;;1.75;0.90;;;;;;;;;;5089976;28;20052;-72
2020/12/29 04:15:14;;;;;;;5.10;1.70;;;;;;;;;;5087679;28;20107;-71
2020/12/29 04:17:40;;;;;;;2.22;1.35;;;;;;;;;;5096036;28;20441;-72
2020/12/29 04:20:08;;;;;;;2.78;1.10;;;;;;;;;;5067628;28;20035;-72
2020/12/29 04:22:34;;;;;;;2.75;1.35;;;;;;;;;;5077816;28;20428;-72
2020/12/29 04:25:01;;;;;;;2.30;1.45;;;;;;;;;;5095678;28;20028;-71
2020/12/29 04:27:27;;;;;;;2.97;1.70;;;;;;;;;;5081255;28;20020;-71
2020/12/29 04:29:53;;;;;;;3.92;2.20;;;;;;;;;;5088341;28;20045;-72
2020/12/29 04:32:19;;;;;;;2.22;1.48;;;;;;;;;;5087412;28;20020;-72
2020/12/29 04:34:46;;;;;;;2.65;1.60;;;;;;;;;;5095601;28;20516;-72
2020/12/29 04:37:12;;;;;;;2.28;1.60;;;;;;;;;;5095674;28;20020;-72
2020/12/29 04:39:38;;;;;;;2.00;1.30;;;;;;;;;;5095498;28;20457;-72
2020/12/29 04:42:05;;;;;;;3.10;1.38;;;;;;;;;;5080778;28;20027;-72
2020/12/29 04:44:31;;;;;;;1.98;1.10;;;;;;;;;;5095565;28;20024;-73
2020/12/29 04:46:58;;;;;;;1.30;0.98;;;;;;;;;;5081228;28;20020;-73
2020/12/29 04:49:24;;;;;;;2.08;1.35;;;;;;;;;;5076988;28;20024;-73
2020/12/29 04:51:57;;;;;;;2.22;1.33;;;;;;;;;;5095075;28;20421;-73
2020/12/29 04:54:25;;;;;;;1.73;1.30;;;;;;;;;;5095474;28;20024;-73
2020/12/29 04:56:55;;;;;;;0.95;0.60;;;;;;;;;;5095081;28;20244;-73
2020/12/29 04:59:21;;;;;;;0.85;0.52;;;;;;;;;;5095436;28;20099;-73
2020/12/29 05:01:47;;;;;;;1.65;0.40;;;;;;;;;;5095447;28;20016;-73
2020/12/29 05:04:13;;;;;;;0.80;0.50;;;;;;;;;;5094548;28;20120;-72
2020/12/29 05:06:39;;;;;;;0.70;0.47;;;;;;;;;;5095308;28;20390;-71
2020/12/29 05:09:06;;;;;;;0.43;0.32;;;;;;;;;;5095170;28;20028;-71
2020/12/29 05:11:33;;;;;;;0.93;0.85;;;;;;;;;;5094917;28;20099;-72
2020/12/29 05:13:59;;;;;;;1.13;1.00;;;;;;;;;;5094960;28;20020;-72
2020/12/29 05:16:26;;;;;;;1.67;1.00;;;;;;;;;;5076896;28;20047;-72
2020/12/29 05:18:52;;;;;;;2.13;1.73;;;;;;;;;;5094544;28;20048;-72
2020/12/29 05:21:19;;;;;;;1.83;1.23;;;;;;;;;;5094971;28;20021;-72
2020/12/29 05:23:45;;;;;;;3.22;1.83;;;;;;;;;;5094540;28;20405;-73
2020/12/29 05:26:12;;;;;;;2.95;1.90;;;;;;;;;;5094919;28;20024;-73
2020/12/29 05:28:38;;;;;;;3.97;1.92;;;;;;;;;;5076685;28;20048;-72
2020/12/29 05:31:05;;;;;;;5.53;2.08;;;;;;;;;;5094458;28;20072;-70
2020/12/29 05:33:31;;;;;;;4.05;2.05;;;;;;;;;;5095097;28;20032;-70
2020/12/29 05:36:01;;;;;;;3.30;1.40;;;;;;;;;;5095404;28;20028;-70
2020/12/29 05:38:27;;;;;;;0.88;0.80;;;;;;;;;;5095579;28;20470;-72
2020/12/29 05:40:53;;;;;;;2.38;1.05;;;;;;;;;;5087738;28;20024;-71
2020/12/29 05:43:29;;;;;;;3.53;1.10;;;;;;;;;;5092026;28;20420;-71
2020/12/29 05:45:57;;;;;;;2.17;1.20;;;;;;;;;;5094610;28;20024;-71
2020/12/29 05:48:23;;;;;;;4.32;1.55;;;;;;;;;;5094038;28;20029;-71
2020/12/29 05:50:49;;;;;;;3.75;1.92;;;;;;;;;;5094573;28;20020;-73
2020/12/29 05:53:19;;;;;;;3.33;1.98;;;;;;;;;;5094276;28;20024;-73
2020/12/29 05:55:46;;;;;;;3.38;2.25;;;;;;;;;;5093862;28;20025;-72
2020/12/29 05:58:13;;;;;;;5.78;2.50;;;;;;;;;;5093989;28;20020;-71
2020/12/29 06:00:40;;;;;;;19.45;7.50;;;;;;;;;;5093491;28;20020;-73
2020/12/29 06:03:07;;;;;;;19.48;9.73;;;;;;;;;;5094125;28;20050;-73
2020/12/29 06:05:34;;;;;;;16.23;8.13;;;;;;;;;;5093968;28;20462;-72
2020/12/29 06:08:01;;;;;;;11.00;7.00;;;;;;;;;;5093868;28;20027;-75
2020/12/29 06:10:28;;;;;;;13.18;9.02;;;;;;;;;;5093607;28;20470;-74
2020/12/29 06:12:58;;;;;;;16.67;8.63;;;;;;;;;;5075548;28;20244;-72
2020/12/29 06:15:35;;;;;;;20.02;8.20;;;;;;;;;;5093933;28;20050;-71
2020/12/29 06:18:02;;;;;;;21.23;9.13;;;;;;;;;;5080472;28;20024;-71
2020/12/29 06:20:33;;;;;;;14.70;10.38;;;;;;;;;;5093600;28;20062;-73
2020/12/29 06:23:00;;;;;;;19.88;12.52;;;;;;;;;;5092080;28;20028;-72
2020/12/29 06:25:29;;;;;;;20.60;8.80;;;;;;;;;;5087506;28;20032;-72
2020/12/29 06:27:59;;;;;;;13.00;7.30;;;;;;;;;;5093287;28;20020;-72
2020/12/29 06:30:25;;;;;;;16.08;8.32;;;;;;;;;;5093388;28;20123;-72
2020/12/29 06:32:53;;;;;;;17.80;10.63;;;;;;;;;;5093462;28;20142;-73
2020/12/29 06:35:19;;;;;;;29.08;14.85;;;;;;;;;;5093313;28;20424;-73
2020/12/29 06:37:57;;;;;;;28.58;13.32;;;;;;;;;;5093059;28;20044;-72
2020/12/29 06:40:23;;;;;;;18.35;8.50;;;;;;;;;;5087854;28;20032;-73
2020/12/29 06:42:49;;;;;;;11.90;6.35;;;;;;;;;;5088861;28;20025;-75
2020/12/29 06:45:16;;;;;;;12.65;6.30;;;;;;;;;;5089999;28;20024;-74
2020/12/29 06:47:46;;;;;;;7.10;4.15;;;;;;;;;;5093639;28;20042;-76
2020/12/29 06:50:22;;;;;;;10.35;5.93;;;;;;;;;;5092266;28;20016;-73
2020/12/29 06:52:59;;;;;;;7.68;4.13;;;;;;;;;;5092508;28;20081;-73
2020/12/29 06:55:28;;;;;;;10.02;5.43;;;;;;;;;;5090861;28;20103;-76
2020/12/29 06:57:54;;;;;;;9.90;4.10;;;;;;;;;;5091886;28;20120;-73
2020/12/29 07:00:21;;;;;;;8.20;4.10;;;;;;;;;;5091687;28;20040;-74
2020/12/29 07:02:48;;;;;;;8.90;5.05;;;;;;;;;;5091475;28;20098;-75
2020/12/29 07:05:25;;;;;;;12.70;4.82;;;;;;;;;;5091541;28;20541;-74
2020/12/29 07:07:54;;;;;;;22.20;10.43;;;;;;;;;;5092127;28;20046;-74
2020/12/29 07:10:20;;;;;;;19.95;9.57;;;;;;;;;;5090938;28;20081;-75
2020/12/29 07:12:47;;;;;;;19.17;10.10;;;;;;;;;;5091759;28;20020;-73
2020/12/29 07:15:14;;;;;;;16.00;8.00;;;;;;;;;;5091596;28;20028;-73
2020/12/29 07:17:40;;;;;;;14.40;8.40;;;;;;;;;;5090414;28;20028;-74
2020/12/29 07:20:13;;;;;;;16.45;10.63;;;;;;;;;;5089025;28;20097;-74
2020/12/29 07:22:39;;;;;;;14.30;9.20;;;;;;;;;;5090494;28;20475;-75
2020/12/29 07:25:06;;;;;;;19.70;7.88;;;;;;;;;;5090729;28;20032;-76
2020/12/29 07:27:32;;;;;;;18.48;8.68;;;;;;;;;;5091320;28;20042;-76
2020/12/29 07:30:01;;;;;;;17.30;8.98;;;;;;;;;;5090135;28;20062;-76
2020/12/29 07:32:28;;;;;;;14.48;7.85;;;;;;;;;;5091283;28;20016;-75
2020/12/29 07:34:54;;;;;;;19.42;10.82;;;;;;;;;;5088740;28;20054;-76
2020/12/29 07:37:21;;;;;;;20.88;11.52;;;;;;;;;;5071132;28;20032;-74
2020/12/29 07:39:47;;;;;;;19.40;10.98;;;;;;;;;;5090233;28;20412;-75
2020/12/29 07:42:14;;;;;;;16.63;8.82;;;;;;;;;;5078210;28;20051;-78
2020/12/29 07:44:41;;;;;;;22.75;10.55;;;;;;;;;;5060176;28;20165;-74
2020/12/29 07:47:07;;;;;;;17.58;10.68;;;;;;;;;;5076229;28;20024;-74
2020/12/29 07:49:33;;;;;;;18.73;9.50;;;;;;;;;;5092462;28;20374;-75
2020/12/29 07:52:00;;;;;;;20.52;10.85;;;;;;;;;;5073564;28;20020;-75
2020/12/29 07:54:26;;;;;;;21.15;9.68;;;;;;;;;;5092563;28;20058;-75
2020/12/29 07:56:52;;;;;;;29.85;15.02;;;;;;;;;;5092714;28;20032;-75
2020/12/29 07:59:18;;;;;;;30.45;15.23;;;;;;;;;;5091630;28;20099;-75
2020/12/29 08:01:51;;;;;;;29.65;15.40;;;;;;;;;;5092033;28;20016;-75
2020/12/29 08:04:27;;;;;;;36.63;18.50;;;;;;;;;;5071586;28;20474;-76
2020/12/29 08:06:53;;;;;;;35.72;17.20;;;;;;;;;;5091673;28;20252;-74
2020/12/29 08:09:19;;;;;;;20.55;10.95;;;;;;;;;;5095315;28;20103;-72
2020/12/29 08:11:45;;;;;;;20.50;7.05;;;;;;;;;;5076649;28;20392;-73
2020/12/29 08:14:12;;;;;;;13.07;7.80;;;;;;;;;;5095439;28;20506;-74
2020/12/29 08:16:38;;;;;;;16.88;8.85;;;;;;;;;;5095637;28;20052;-72
2020/12/29 08:19:10;;;;;;;26.25;9.45;;;;;;;;;;5095545;28;20017;-74
2020/12/29 08:21:40;;;;;;;19.48;9.07;;;;;;;;;;5095727;28;20024;-73
2020/12/29 08:24:07;;;;;;;12.77;7.82;;;;;;;;;;5095474;28;20055;-73
2020/12/29 08:26:33;;;;;;;14.23;8.30;;;;;;;;;;5095726;28;20024;-74
2020/12/29 08:29:00;;;;;;;13.55;8.57;;;;;;;;;;5095730;28;20053;-74
2020/12/29 08:31:28;;;;;;;13.32;8.07;;;;;;;;;;5095629;28;20052;-75
2020/12/29 08:33:54;;;;;;;21.02;11.18;;;;;;;;;;5090786;28;20093;-72
2020/12/29 08:36:24;;;;;;;25.08;13.25;;;;;;;;;;5092805;28;20520;-74
2020/12/29 08:39:16;;;;;;;27.45;15.13;;;;;;;;;;5095034;28;20024;-73
2020/12/29 08:41:49;;;;;;;23.40;11.38;;;;;;;;;;5091019;28;20012;-73
2020/12/29 08:44:16;;;;;;;18.77;10.77;;;;;;;;;;5094698;28;20028;-73
2020/12/29 08:46:42;;;;;;;21.73;9.98;;;;;;;;;;5099851;28;20017;-72
2020/12/29 08:49:08;;;;;;;20.23;9.80;;;;;;;;;;5077435;28;20020;-74
2020/12/29 08:51:53;;;;;;;17.90;7.50;;;;;;;;;;5095421;28;20093;-81
2020/12/29 08:54:19;;;;;;;13.85;7.35;;;;;;;;;;5063448;28;20536;-73
2020/12/29 08:56:45;;;;;;;20.85;14.00;;;;;;;;;;5071427;28;20028;-77
2020/12/29 08:59:12;;;;;;;31.00;15.32;;;;;;;;;;5093487;28;20021;-74
2020/12/29 09:01:40;;;;;;;40.10;18.60;;;;;;;;;;5073478;28;20056;-72
2020/12/29 09:04:24;;;;;;;29.55;17.42;;;;;;;;;;5091182;28;20060;-73
2020/12/29 09:07:03;;;;;;;35.83;18.85;;;;;;;;;;5064850;28;20023;-74
2020/12/29 09:09:29;;;;;;;29.45;16.45;;;;;;;;;;5093067;28;20046;-71
2020/12/29 09:12:12;;;;;;;17.15;9.38;;;;;;;;;;5093399;28;20023;-72
2020/12/29 09:14:39;;;;;;;30.23;12.77;;;;;;;;;;5067060;28;20043;-72
2020/12/29 09:17:06;;;;;;;25.45;13.65;;;;;;;;;;5093977;28;20043;-72
2020/12/29 09:19:32;;;;;;;35.17;16.52;;;;;;;;;;5093317;28;20498;-71
2020/12/29 09:22:09;;;;;;;18.55;10.90;;;;;;;;;;5064560;28;20386;-72
2020/12/29 09:24:35;;;;;;;19.40;9.30;;;;;;;;;;5094073;28;20089;-73
2020/12/29 09:27:01;;;;;;;16.70;9.10;;;;;;;;;;5093914;28;20099;-73
2020/12/29 09:29:27;;;;;;;16.40;8.63;;;;;;;;;;5088270;28;20012;-73
2020/12/29 09:31:56;;;;;;;22.08;10.52;;;;;;;;;;5063464;28;20074;-74
2020/12/29 09:34:23;;;;;;;22.05;8.95;;;;;;;;;;5089354;28;20023;-73
2020/12/29 09:36:49;;;;;;;19.80;10.48;;;;;;;;;;5094291;28;20331;-74
2020/12/29 09:39:15;;;;;;;29.70;13.60;;;;;;;;;;5076060;28;20024;-73
2020/12/29 09:41:41;;;;;;;25.25;12.68;;;;;;;;;;5081052;28;20056;-74
2020/12/29 09:44:07;;;;;;;31.85;15.63;;;;;;;;;;5093546;28;20520;-73
2020/12/29 09:46:36;;;;;;;32.38;15.50;;;;;;;;;;5091401;28;20359;-73
2020/12/29 09:49:03;;;;;;;36.05;18.85;;;;;;;;;;5094079;28;20028;-82
2020/12/29 09:51:29;;;;;;;39.72;20.50;;;;;;;;;;5069355;28;20020;-74
2020/12/29 09:53:55;;;;;;;36.78;18.13;;;;;;;;;;5094013;28;20081;-73
2020/12/29 09:56:22;;;;;;;32.13;17.27;;;;;;;;;;5093314;28;20351;-72
2020/12/29 09:58:49;;;;;;;41.72;17.35;;;;;;;;;;5092444;28;20473;-72
2020/12/29 10:01:15;;;;;;;34.55;16.40;;;;;;;;;;5093897;28;20369;-77
2020/12/29 10:03:41;;;;;;;26.98;13.07;;;;;;;;;;5092268;28;20024;-73
2020/12/29 10:06:07;;;;;;;40.20;14.57;;;;;;;;;;5064236;28;20493;-75
2020/12/29 10:08:33;;;;;;;29.83;14.07;;;;;;;;;;5092847;28;20098;-79
2020/12/29 10:10:59;;;;;;;27.05;15.25;;;;;;;;;;5074929;28;20107;-71
2020/12/29 10:13:26;;;;;;;35.75;16.17;;;;;;;;;;5092526;28;20024;-72
2020/12/29 10:15:52;;;;;;;34.15;15.25;;;;;;;;;;5090584;28;20087;-71
2020/12/29 10:18:18;;;;;;;31.67;14.70;;;;;;;;;;5090760;28;20069;-71
2020/12/29 10:20:44;;;;;;;30.10;12.73;;;;;;;;;;5090744;28;20042;-72
2020/12/29 10:23:10;;;;;;;24.67;10.48;;;;;;;;;;5091514;28;20023;-73
2020/12/29 10:25:36;;;;;;;24.13;11.43;;;;;;;;;;5091891;28;20036;-71
2020/12/29 10:28:02;;;;;;;26.35;10.93;;;;;;;;;;5092216;28;20135;-73
2020/12/29 10:30:28;;;;;;;17.08;8.38;;;;;;;;;;5091366;28;20055;-72
2020/12/29 10:32:55;;;;;;;19.63;10.20;;;;;;;;;;5092685;28;20045;-72
2020/12/29 10:35:21;;;;;;;28.95;14.80;;;;;;;;;;5093265;28;20028;-72
2020/12/29 10:37:47;;;;;;;25.98;10.23;;;;;;;;;;5074705;28;20027;-72
2020/12/29 10:40:13;;;;;;;18.77;10.07;;;;;;;;;;5091156;28;20066;-72
2020/12/29 10:42:39;;;;;;;22.05;8.60;;;;;;;;;;5093119;28;20047;-73
2020/12/29 10:45:05;;;;;;;14.07;7.05;;;;;;;;;;5093000;28;20063;-73
2020/12/29 10:47:31;;;;;;;23.70;10.45;;;;;;;;;;5092563;28;20024;-72
2020/12/29 10:49:58;;;;;;;25.83;13.48;;;;;;;;;;5093054;28;20016;-73
2020/12/29 10:52:24;;;;;;;25.25;10.18;;;;;;;;;;5092854;28;20024;-73
2020/12/29 10:54:50;;;;;;;26.35;14.32;;;;;;;;;;5092706;28;20529;-75
2020/12/29 10:57:16;;;;;;;30.00;14.85;;;;;;;;;;5092864;28;20115;-72
2020/12/29 10:59:43;;;;;;;28.20;13.98;;;;;;;;;;5065391;28;20047;-71
2020/12/29 11:02:09;;;;;;;36.10;14.30;;;;;;;;;;5088791;28;20036;-73
2020/12/29 11:04:35;;;;;;;44.75;21.08;;;;;;;;;;5092947;28;20039;-73
2020/12/29 11:07:01;;;;;;;19.30;12.23;;;;;;;;;;5092555;28;20369;-75
2020/12/29 11:09:27;;;;;;;15.93;9.50;;;;;;;;;;5092996;28;20466;-72
2020/12/29 11:11:53;;;;;;;33.38;14.25;;;;;;;;;;5092850;28;20028;-75
2020/12/29 11:14:20;;;;;;;25.80;13.10;;;;;;;;;;5056601;28;20017;-74
2020/12/29 11:16:49;;;;;;;27.33;16.23;;;;;;;;;;5078837;28;20496;-75
2020/12/29 11:19:15;;;;;;;27.25;17.33;;;;;;;;;;5073603;28;20381;-75
2020/12/29 11:21:42;;;;;;;30.70;15.60;;;;;;;;;;5092615;28;20016;-73
2020/12/29 11:24:08;;;;;;;29.10;13.98;;;;;;;;;;5092467;28;20055;-74
2020/12/29 11:26:34;;;;;;;28.20;15.75;;;;;;;;;;5074610;28;20028;-74
2020/12/29 11:29:00;;;;;;;32.97;15.57;;;;;;;;;;5092261;28;20378;-72
2020/12/29 11:31:27;;;;;;;11.85;7.05;;;;;;;;;;5078512;28;20126;-73
2020/12/29 11:33:53;;;;;;;17.52;11.52;;;;;;;;;;5089391;28;20034;-73
2020/12/29 11:36:21;;;;;;;18.73;11.25;;;;;;;;;;5092426;28;20056;-70
2020/12/29 11:38:47;;;;;;;21.38;12.50;;;;;;;;;;5092407;28;20073;-72
2020/12/29 11:41:14;;;;;;;16.52;9.90;;;;;;;;;;5082834;28;20044;-70
2020/12/29 11:43:40;;;;;;;25.15;14.15;;;;;;;;;;5096306;28;20012;-72
2020/12/29 11:46:07;;;;;;;30.27;14.40;;;;;;;;;;5093617;28;20028;-71
2020/12/29 11:48:33;;;;;;;36.88;18.70;;;;;;;;;;5096896;28;20043;-72
2020/12/29 11:50:59;;;;;;;28.60;14.63;;;;;;;;;;5098910;28;20081;-71
2020/12/29 11:53:25;;;;;;;19.42;11.13;;;;;;;;;;5098208;28;20027;-71
2020/12/29 11:55:51;;;;;;;21.92;12.55;;;;;;;;;;5094574;28;20095;-72
2020/12/29 11:58:18;;;;;;;29.52;14.73;;;;;;;;;;5094351;28;20024;-75
2020/12/29 12:00:45;;;;;;;18.73;10.75;;;;;;;;;;5095221;28;20119;-72
2020/12/29 12:03:11;;;;;;;24.13;9.88;;;;;;;;;;5077413;28;20028;-75
2020/12/29 12:05:37;;;;;;;9.10;4.30;;;;;;;;;;5094725;28;20138;-74
2020/12/29 12:08:03;;;;;;;9.98;5.78;;;;;;;;;;5095490;28;20017;-76
2020/12/29 12:10:30;;;;;;;7.18;3.85;;;;;;;;;;5093846;28;20027;-75
2020/12/29 12:12:56;;;;;;;9.10;4.63;;;;;;;;;;5071101;28;20220;-73
2020/12/29 12:15:22;;;;;;;8.68;4.70;;;;;;;;;;5089848;28;20111;-75
2020/12/29 12:17:48;;;;;;;7.93;4.05;;;;;;;;;;5093676;28;20054;-73
2020/12/29 12:20:14;;;;;;;7.78;4.30;;;;;;;;;;5095714;28;20085;-74
2020/12/29 12:22:40;;;;;;;7.68;5.43;;;;;;;;;;5077265;28;20051;-73
2020/12/29 12:25:06;;;;;;;12.15;5.00;;;;;;;;;;5095292;28;20047;-76
2020/12/29 12:27:32;;;;;;;6.88;4.40;;;;;;;;;;5094625;28;20081;-72
2020/12/29 12:29:58;;;;;;;10.77;5.45;;;;;;;;;;5095624;28;20051;-72
2020/12/29 12:32:24;;;;;;;8.27;4.50;;;;;;;;;;5094509;28;20020;-74
2020/12/29 12:34:51;;;;;;;12.57;5.95;;;;;;;;;;5095303;28;20082;-71
2020/12/29 12:37:17;;;;;;;10.93;5.05;;;;;;;;;;5077143;28;20028;-70
2020/12/29 12:39:43;;;;;;;8.48;4.53;;;;;;;;;;5094012;28;20031;-73
2020/12/29 12:42:09;;;;;;;11.02;6.35;;;;;;;;;;5074506;28;20024;-72
2020/12/29 12:44:36;;;;;;;13.63;6.30;;;;;;;;;;5076519;28;20458;-73
2020/12/29 12:47:04;;;;;;;8.80;5.65;;;;;;;;;;5094383;28;20020;-73
2020/12/29 12:49:30;;;;;;;10.13;6.10;;;;;;;;;;5092607;28;20111;-72
2020/12/29 12:51:57;;;;;;;9.70;5.22;;;;;;;;;;5092089;28;20135;-73
2020/12/29 12:54:23;;;;;;;9.32;4.47;;;;;;;;;;5091694;28;20024;-71
2020/12/29 12:56:52;;;;;;;12.82;4.97;;;;;;;;;;5094450;28;20099;-74
2020/12/29 12:59:18;;;;;;;9.57;5.18;;;;;;;;;;5090006;28;20023;-70
2020/12/29 13:01:44;;;;;;;8.02;4.93;;;;;;;;;;5092749;28;20020;-72
2020/12/29 13:04:10;;;;;;;7.57;5.07;;;;;;;;;;5094520;28;20077;-72
2020/12/29 13:06:36;;;;;;;14.10;6.82;;;;;;;;;;5094663;28;20046;-77
2020/12/29 13:09:03;;;;;;;22.42;11.50;;;;;;;;;;5094671;28;20486;-73
2020/12/29 13:11:29;;;;;;;29.02;14.88;;;;;;;;;;5094104;28;20024;-74
2020/12/29 13:13:55;;;;;;;27.40;14.88;;;;;;;;;;5093168;28;20032;-77
2020/12/29 13:16:22;;;;;;;38.45;19.23;;;;;;;;;;5093844;28;20024;-70
2020/12/29 13:18:49;;;;;;;30.77;17.38;;;;;;;;;;5076328;28;20024;-74
2020/12/29 13:21:16;;;;;;;41.75;19.33;;;;;;;;;;5094119;28;20045;-74
2020/12/29 13:23:42;;;;;;;29.00;16.27;;;;;;;;;;5094099;28;20031;-72
2020/12/29 13:26:12;;;;;;;23.73;12.85;;;;;;;;;;5093855;28;20109;-76
2020/12/29 13:28:39;;;;;;;15.10;8.63;;;;;;;;;;5094090;28;20020;-77
2020/12/29 13:31:05;;;;;;;21.85;11.73;;;;;;;;;;5096065;28;20492;-75
2020/12/29 13:33:31;;;;;;;20.98;11.68;;;;;;;;;;5095798;28;20020;-75
2020/12/29 13:35:57;;;;;;;31.80;13.95;;;;;;;;;;5093857;28;20462;-72
2020/12/29 13:38:23;;;;;;;18.00;9.30;;;;;;;;;;5092483;28;20028;-73
2020/12/29 13:40:49;;;;;;;23.85;12.57;;;;;;;;;;5073826;28;20047;-75
2020/12/29 13:43:15;;;;;;;18.13;8.95;;;;;;;;;;5074473;28;20022;-73
2020/12/29 13:45:42;;;;;;;17.35;9.73;;;;;;;;;;5089737;28;20024;-73
2020/12/29 13:48:08;;;;;;;17.10;9.48;;;;;;;;;;5092588;28;20020;-73
2020/12/29 13:50:35;;;;;;;19.95;10.02;;;;;;;;;;5092765;28;20031;-72
2020/12/29 13:53:01;;;;;;;23.92;9.68;;;;;;;;;;5074376;28;20537;-72
2020/12/29 13:55:27;;;;;;;19.08;7.72;;;;;;;;;;5091844;28;20095;-72
2020/12/29 13:57:53;;;;;;;9.95;5.18;;;;;;;;;;5091750;28;20020;-73
2020/12/29 14:00:19;;;;;;;11.20;5.05;;;;;;;;;;5092755;28;20020;-73
2020/12/29 14:02:45;;;;;;;14.98;8.80;;;;;;;;;;5092301;28;20433;-72
2020/12/29 14:05:12;;;;;;;22.23;13.40;;;;;;;;;;5091661;28;20492;-72
2020/12/29 14:07:38;;;;;;;37.75;19.92;;;;;;;;;;5081806;28;20521;-77
2020/12/29 14:10:04;;;;;;;42.53;24.38;;;;;;;;;;5089839;28;20020;-73
2020/12/29 14:12:30;;;;;;;35.72;21.52;;;;;;;;;;5073478;28;20020;-73
2020/12/29 14:14:56;;;;;;;46.28;23.90;;;;;;;;;;5073007;28;20032;-76
2020/12/29 14:17:22;;;;;;;37.50;20.58;;;;;;;;;;5092065;28;20024;-76
2020/12/29 14:19:48;;;;;;;24.10;13.73;;;;;;;;;;5090365;28;20031;-75
2020/12/29 14:22:14;;;;;;;27.20;15.82;;;;;;;;;;5090746;28;20472;-73
2020/12/29 14:24:40;;;;;;;17.42;8.15;;;;;;;;;;5077167;28;20028;-73
2020/12/29 14:27:07;;;;;;;16.60;8.60;;;;;;;;;;5091585;28;20024;-75
2020/12/29 14:29:33;;;;;;;8.95;4.47;;;;;;;;;;5073615;28;20042;-75